createdAt,value
2017-05-18T00:02:20.020Z,7.16
2017-05-18T00:04:47.237Z,4.02
2017-05-18T00:07:14.440Z,3.68
2017-05-18T00:09:41.660Z,3.66
2017-05-18T00:12:09.256Z,3.68
2017-05-18T00:14:36.461Z,4.78
2017-05-18T00:17:04.393Z,5.34
2017-05-18T00:19:31.709Z,4.30
2017-05-18T00:21:59.697Z,3.74
2017-05-18T00:24:26.899Z,6.48
2017-05-18T00:26:54.092Z,4.08
2017-05-18T00:29:21.289Z,3.88
2017-05-18T00:31:48.503Z,3.84
2017-05-18T00:34:15.732Z,3.56
2017-05-18T00:36:42.925Z,3.40
2017-05-18T00:39:10.122Z,4.96
2017-05-18T00:41:37.340Z,3.14
2017-05-18T00:44:04.577Z,4.34
2017-05-18T00:46:31.815Z,3.60
2017-05-18T00:48:59.905Z,3.32
2017-05-18T00:51:27.108Z,3.72
2017-05-18T00:53:54.339Z,3.70
2017-05-18T00:56:21.554Z,4.62
2017-05-18T00:58:48.780Z,4.10
2017-05-18T01:01:16.097Z,3.80
2017-05-18T01:03:43.348Z,3.72
2017-05-18T01:06:10.533Z,3.42
2017-05-18T01:08:38.613Z,3.44
2017-05-18T01:11:05.956Z,3.38
2017-05-18T01:13:33.153Z,3.16
2017-05-18T01:16:01.097Z,2.84
2017-05-18T01:18:28.299Z,3.76
2017-05-18T01:20:55.508Z,3.08
2017-05-18T01:23:22.721Z,3.14
2017-05-18T01:25:49.920Z,3.26
2017-05-18T01:28:17.153Z,2.94
2017-05-18T01:30:44.381Z,4.04
2017-05-18T01:33:12.349Z,3.16
2017-05-18T01:35:40.404Z,3.30
2017-05-18T01:38:07.639Z,3.22
2017-05-18T01:40:34.916Z,3.74
2017-05-18T01:43:02.901Z,2.92
2017-05-18T01:45:30.153Z,4.46
2017-05-18T01:47:57.373Z,2.98
2017-05-18T01:50:24.617Z,5.68
2017-05-18T01:52:51.841Z,3.14
2017-05-18T01:55:19.417Z,3.16
2017-05-18T01:57:46.593Z,3.54
2017-05-18T02:00:13.821Z,2.74
2017-05-18T02:02:41.404Z,3.22
2017-05-18T02:05:08.637Z,3.28
2017-05-18T02:07:35.848Z,3.08
2017-05-18T02:10:04.364Z,3.84
2017-05-18T02:12:31.561Z,3.22
2017-05-18T02:14:58.744Z,4.58
2017-05-18T02:17:25.965Z,3.00
2017-05-18T02:19:53.905Z,3.42
2017-05-18T02:22:21.100Z,2.88
2017-05-18T02:24:48.296Z,3.50
2017-05-18T02:27:15.493Z,3.36
2017-05-18T02:29:42.709Z,2.90
2017-05-18T02:32:10.681Z,3.62
2017-05-18T02:34:37.883Z,3.18
2017-05-18T02:37:05.085Z,2.94
2017-05-18T02:39:32.330Z,3.54
2017-05-18T02:41:59.537Z,3.46
2017-05-18T02:44:26.731Z,3.24
2017-05-18T02:46:54.706Z,3.84
2017-05-18T02:49:21.945Z,3.78
2017-05-18T02:51:49.878Z,4.12
2017-05-18T02:54:17.084Z,3.64
2017-05-18T02:56:44.285Z,4.08
2017-05-18T02:59:11.518Z,4.02
2017-05-18T03:01:38.727Z,3.06
2017-05-18T03:04:06.024Z,3.30
2017-05-18T03:06:33.232Z,3.30
2017-05-18T03:09:00.443Z,3.60
2017-05-18T03:11:28.392Z,4.00
2017-05-18T03:13:55.610Z,4.50
2017-05-18T03:16:22.828Z,6.00
2017-05-18T03:18:50.036Z,5.00
2017-05-18T03:21:17.269Z,4.28
2017-05-18T03:23:44.465Z,3.70
2017-05-18T03:26:11.677Z,3.60
2017-05-18T03:28:38.869Z,3.44
2017-05-18T03:31:06.304Z,4.00
2017-05-18T03:33:33.516Z,4.06
2017-05-18T03:36:00.720Z,4.46
2017-05-18T03:38:27.945Z,5.20
2017-05-18T03:40:55.175Z,4.72
2017-05-18T03:43:22.425Z,4.04
2017-05-18T03:45:49.628Z,3.76
2017-05-18T03:48:17.564Z,3.32
2017-05-18T03:50:44.876Z,3.72
2017-05-18T03:53:12.844Z,4.46
2017-05-18T03:55:40.784Z,4.00
2017-05-18T03:58:08.021Z,3.46
2017-05-18T04:00:35.962Z,4.22
2017-05-18T04:03:03.346Z,5.08
2017-05-18T04:05:30.553Z,4.50
2017-05-18T04:07:57.782Z,4.66
2017-05-18T04:10:24.989Z,3.74
2017-05-18T04:12:52.221Z,5.54
2017-05-18T04:15:20.144Z,5.04
2017-05-18T04:17:47.344Z,4.50
2017-05-18T04:20:14.548Z,4.04
2017-05-18T04:22:41.780Z,4.52
2017-05-18T04:25:09.066Z,3.78
2017-05-18T04:27:37.013Z,7.56
2017-05-18T04:30:04.213Z,5.12
2017-05-18T04:32:31.443Z,8.92
2017-05-18T04:34:58.616Z,5.16
2017-05-18T04:37:25.828Z,4.82
2017-05-18T04:39:53.017Z,5.52
2017-05-18T04:42:20.272Z,3.96
2017-05-18T04:44:47.509Z,3.36
2017-05-18T04:47:15.181Z,4.64
2017-05-18T04:49:42.386Z,6.06
2017-05-18T04:52:09.655Z,3.54
2017-05-18T04:54:36.850Z,3.66
2017-05-18T04:57:04.070Z,4.06
2017-05-18T04:59:32.018Z,3.60
2017-05-18T05:01:59.285Z,3.26
2017-05-18T05:04:27.365Z,4.04
2017-05-18T05:06:55.562Z,5.86
2017-05-18T05:09:25.153Z,4.38
2017-05-18T05:11:56.550Z,3.34
2017-05-18T05:14:24.780Z,3.38
2017-05-18T05:16:51.985Z,7.36
2017-05-18T05:19:19.551Z,5.74
2017-05-18T05:21:46.789Z,3.90
2017-05-18T05:24:14.021Z,3.80
2017-05-18T05:26:41.369Z,3.20
2017-05-18T05:29:08.892Z,2.76
2017-05-18T05:31:36.332Z,4.22
2017-05-18T05:34:03.547Z,4.74
2017-05-18T05:36:30.751Z,3.78
2017-05-18T05:38:57.993Z,2.78
2017-05-18T05:41:25.534Z,5.40
2017-05-18T05:43:52.748Z,3.80
2017-05-18T05:46:19.994Z,3.10
2017-05-18T05:48:47.264Z,3.52
2017-05-18T05:51:14.499Z,3.70
2017-05-18T05:53:41.797Z,4.86
2017-05-18T05:56:09.048Z,9.72
2017-05-18T05:58:36.257Z,5.28
2017-05-18T06:01:03.609Z,4.20
2017-05-18T06:03:30.820Z,4.56
2017-05-18T06:05:58.123Z,7.62
2017-05-18T06:08:25.308Z,4.30
2017-05-18T06:10:52.920Z,7.50
2017-05-18T06:13:20.182Z,3.36
2017-05-18T06:15:48.707Z,4.02
2017-05-18T06:18:15.913Z,5.64
2017-05-18T06:20:43.100Z,5.30
2017-05-18T06:23:10.554Z,3.72
2017-05-18T06:25:38.149Z,4.84
2017-05-18T06:28:05.440Z,3.80
2017-05-18T06:30:32.721Z,3.92
2017-05-18T06:32:59.924Z,4.84
2017-05-18T06:35:27.506Z,5.06
2017-05-18T06:37:54.846Z,3.64
2017-05-18T06:40:22.112Z,3.70
2017-05-18T06:42:49.325Z,4.70
2017-05-18T06:45:16.685Z,4.92
2017-05-18T06:47:43.887Z,3.70
2017-05-18T06:50:11.182Z,4.52
2017-05-18T06:52:38.507Z,3.88
2017-05-18T06:55:06.675Z,7.68
2017-05-18T06:57:33.877Z,4.50
2017-05-18T07:00:01.061Z,5.52
2017-05-18T07:02:28.285Z,4.12
2017-05-18T07:04:55.671Z,4.94
2017-05-18T07:07:22.852Z,4.64
2017-05-18T07:09:50.044Z,5.40
2017-05-18T07:12:17.269Z,6.42
2017-05-18T07:14:44.493Z,5.76
2017-05-18T07:17:11.705Z,7.32
2017-05-18T07:19:38.918Z,4.28
2017-05-18T07:22:06.161Z,8.26
2017-05-18T07:24:33.407Z,5.30
2017-05-18T07:27:00.613Z,8.36
2017-05-18T07:29:27.853Z,5.62
2017-05-18T07:31:55.056Z,7.32
2017-05-18T07:34:22.244Z,5.36
2017-05-18T07:36:50.187Z,5.50
2017-05-18T07:39:17.387Z,5.00
2017-05-18T07:41:44.594Z,5.60
2017-05-18T07:44:11.809Z,5.58
2017-05-18T07:46:39.018Z,4.66
2017-05-18T07:49:06.269Z,8.10
2017-05-18T07:51:33.485Z,6.54
2017-05-18T07:54:00.682Z,5.36
2017-05-18T07:56:28.675Z,7.64
2017-05-18T07:58:56.697Z,5.70
2017-05-18T08:01:23.928Z,7.94
2017-05-18T08:03:51.210Z,5.58
2017-05-18T08:06:18.408Z,5.86
2017-05-18T08:08:45.630Z,6.56
2017-05-18T08:11:12.860Z,5.22
2017-05-18T08:13:40.053Z,5.06
2017-05-18T08:16:08.058Z,6.38
2017-05-18T08:18:35.269Z,6.06
2017-05-18T08:21:02.480Z,6.92
2017-05-18T08:23:29.706Z,5.66
2017-05-18T08:25:56.968Z,5.98
2017-05-18T08:28:24.920Z,5.74
2017-05-18T08:30:52.228Z,6.70
2017-05-18T08:33:21.014Z,5.88
2017-05-18T08:35:48.366Z,5.82
2017-05-18T08:38:15.608Z,12.20
2017-05-18T08:40:42.825Z,8.86
2017-05-18T08:43:13.711Z,7.12
2017-05-18T08:45:40.924Z,8.20
2017-05-18T08:48:08.125Z,6.40
2017-05-18T08:50:35.325Z,7.44
2017-05-18T08:53:02.529Z,7.82
2017-05-18T08:58:02.000Z,8.52
2017-05-18T09:00:29.238Z,7.56
2017-05-18T09:02:56.449Z,7.00
2017-05-18T09:05:24.420Z,6.70
2017-05-18T09:10:24.608Z,7.20
2017-05-18T09:12:51.822Z,6.68
2017-05-18T09:15:19.025Z,6.52
2017-05-18T09:17:46.221Z,5.90
2017-05-18T09:20:13.432Z,6.62
2017-05-18T09:22:40.664Z,7.36
2017-05-18T09:25:13.887Z,5.62
2017-05-18T09:27:41.226Z,5.98
2017-05-18T09:30:08.450Z,5.28
2017-05-18T09:32:35.644Z,6.08
2017-05-18T09:35:02.852Z,4.88
2017-05-18T09:37:30.039Z,7.46
2017-05-18T09:40:04.125Z,4.92
2017-05-18T09:42:31.399Z,5.50
2017-05-18T09:44:58.618Z,5.64
2017-05-18T09:47:25.825Z,7.18
2017-05-18T09:49:53.000Z,6.46
2017-05-18T09:52:20.931Z,6.92
2017-05-18T09:54:51.769Z,6.24
2017-05-18T09:57:18.987Z,8.32
2017-05-18T09:59:46.169Z,6.04
2017-05-18T10:02:13.373Z,6.88
2017-05-18T10:04:41.296Z,6.72
2017-05-18T10:07:08.503Z,6.34
2017-05-18T10:09:42.241Z,6.26
2017-05-18T10:12:09.492Z,11.72
2017-05-18T10:14:36.745Z,19.44
2017-05-18T10:17:03.946Z,22.28
2017-05-18T10:19:31.122Z,25.56
2017-05-18T10:21:58.369Z,21.18
2017-05-18T10:24:28.799Z,26.90
2017-05-18T10:26:55.981Z,24.30
2017-05-18T10:29:23.174Z,26.14
2017-05-18T10:31:50.379Z,24.76
2017-05-18T10:34:17.605Z,31.28
2017-05-18T10:36:44.845Z,28.84
2017-05-18T10:39:12.055Z,26.40
2017-05-18T10:41:42.892Z,29.40
2017-05-18T10:44:10.109Z,22.52
2017-05-18T10:46:37.296Z,25.58
2017-05-18T10:49:04.506Z,22.64
2017-05-18T10:51:31.704Z,23.98
2017-05-18T10:53:58.920Z,25.22
2017-05-18T10:56:26.877Z,30.64
2017-05-18T10:58:54.114Z,30.84
2017-05-18T11:01:21.340Z,29.98
2017-05-18T11:03:48.553Z,29.74
2017-05-18T11:06:15.792Z,32.10
2017-05-18T11:08:43.021Z,34.62
2017-05-18T11:11:13.941Z,31.48
2017-05-18T11:13:41.177Z,34.36
2017-05-18T11:16:08.376Z,34.74
2017-05-18T11:18:35.610Z,35.54
2017-05-18T11:21:02.827Z,35.78
2017-05-18T11:23:30.041Z,36.22
2017-05-18T11:25:57.249Z,34.08
2017-05-18T11:28:25.222Z,34.40
2017-05-18T11:30:53.164Z,35.76
2017-05-18T11:33:20.381Z,35.08
2017-05-18T11:35:47.573Z,33.14
2017-05-18T11:38:14.774Z,31.70
2017-05-18T11:40:41.979Z,33.16
2017-05-18T11:43:09.245Z,30.86
2017-05-18T11:45:37.208Z,32.02
2017-05-18T11:48:04.426Z,31.62
2017-05-18T11:50:31.644Z,33.18
2017-05-18T11:52:58.893Z,36.88
2017-05-18T11:55:26.106Z,42.24
2017-05-18T11:57:53.349Z,46.96
2017-05-18T12:00:20.623Z,45.32
2017-05-18T12:02:48.578Z,49.68
2017-05-18T12:05:15.764Z,55.86
2017-05-18T12:07:42.965Z,51.96
2017-05-18T12:10:10.165Z,53.68
2017-05-18T12:12:37.404Z,55.86
2017-05-18T12:15:04.589Z,60.82
2017-05-18T12:17:31.813Z,64.76
2017-05-18T12:19:59.085Z,57.90
2017-05-18T12:22:26.316Z,48.46
2017-05-18T12:24:53.589Z,45.38
2017-05-18T12:27:20.884Z,45.72
2017-05-18T12:29:49.466Z,43.42
2017-05-18T12:32:16.729Z,40.52
2017-05-18T12:34:44.000Z,39.92
2017-05-18T12:37:11.234Z,37.18
2017-05-18T12:39:38.481Z,41.90
2017-05-18T12:42:05.725Z,34.56
2017-05-18T12:44:33.773Z,35.78
2017-05-18T12:47:01.752Z,32.30
2017-05-18T12:49:28.964Z,34.48
2017-05-18T12:51:56.156Z,40.08
2017-05-18T12:54:24.122Z,35.22
2017-05-18T12:56:51.337Z,34.86
2017-05-18T12:59:20.846Z,33.24
2017-05-18T13:01:48.103Z,31.68
2017-05-18T13:04:15.381Z,27.04
2017-05-18T13:06:42.593Z,25.00
2017-05-18T13:09:09.792Z,26.14
2017-05-18T13:11:36.993Z,23.50
2017-05-18T13:14:04.232Z,22.16
2017-05-18T13:16:31.447Z,23.60
2017-05-18T13:18:58.625Z,23.86
2017-05-18T13:21:25.826Z,24.88
2017-05-18T13:23:53.061Z,23.56
2017-05-18T13:26:20.704Z,25.58
2017-05-18T13:28:47.914Z,25.80
2017-05-18T13:31:15.120Z,24.42
2017-05-18T13:33:42.321Z,25.94
2017-05-18T13:36:09.517Z,25.90
2017-05-18T13:38:37.303Z,29.60
2017-05-18T13:41:04.772Z,27.82
2017-05-18T13:43:32.048Z,25.66
2017-05-18T13:45:59.274Z,26.56
2017-05-18T13:48:26.496Z,25.52
2017-05-18T13:50:53.755Z,25.88
2017-05-18T13:53:20.956Z,26.10
2017-05-18T13:55:48.900Z,27.28
2017-05-18T13:58:16.218Z,24.02
2017-05-18T14:00:43.441Z,25.88
2017-05-18T14:03:10.661Z,23.28
2017-05-18T14:05:38.615Z,18.20
2017-05-18T14:08:06.573Z,16.96
2017-05-18T14:10:33.804Z,15.52
2017-05-18T14:13:01.028Z,14.66
2017-05-18T14:15:28.213Z,14.54
2017-05-18T14:17:56.200Z,13.74
2017-05-18T14:20:23.395Z,15.58
2017-05-18T14:22:50.609Z,18.44
2017-05-18T14:25:17.824Z,19.78
2017-05-18T14:27:45.012Z,24.74
2017-05-18T14:30:12.976Z,26.24
2017-05-18T14:32:40.198Z,22.20
2017-05-18T14:35:07.657Z,25.00
2017-05-18T14:40:08.420Z,22.14
2017-05-18T14:42:35.989Z,20.12
2017-05-18T14:45:03.232Z,20.38
2017-05-18T14:47:30.432Z,19.90
2017-05-18T14:49:57.662Z,21.88
2017-05-18T14:52:25.019Z,20.28
2017-05-18T14:54:52.467Z,22.80
2017-05-18T14:57:19.917Z,19.76
2017-05-18T14:59:47.496Z,19.20
2017-05-18T15:02:14.932Z,22.00
2017-05-18T15:04:42.574Z,20.46
2017-05-18T15:07:10.572Z,18.70
2017-05-18T15:09:37.880Z,21.16
2017-05-18T15:12:05.241Z,19.08
2017-05-18T15:14:33.169Z,22.20
2017-05-18T15:17:00.415Z,21.36
2017-05-18T15:19:27.711Z,23.34
2017-05-18T15:21:55.044Z,20.56
2017-05-18T15:24:23.019Z,20.86
2017-05-18T15:26:52.006Z,22.10
2017-05-18T15:29:19.200Z,20.78
2017-05-18T15:31:46.428Z,17.96
2017-05-18T15:34:13.629Z,19.88
2017-05-18T15:36:41.345Z,20.28
2017-05-18T15:39:12.732Z,18.84
2017-05-18T15:41:40.077Z,16.88
2017-05-18T15:44:07.443Z,22.52
2017-05-18T15:46:35.403Z,20.34
2017-05-18T15:49:02.638Z,23.66
2017-05-18T15:51:30.596Z,23.68
2017-05-18T15:53:58.868Z,22.12
2017-05-18T15:56:26.355Z,21.56
2017-05-18T15:58:53.816Z,21.72
2017-05-18T16:01:21.277Z,21.42
2017-05-18T16:03:48.724Z,22.56
2017-05-18T16:06:16.164Z,26.14
2017-05-18T16:08:43.612Z,23.74
2017-05-18T16:11:13.148Z,25.22
2017-05-18T16:13:40.601Z,23.86
2017-05-18T16:16:08.720Z,24.52
2017-05-18T16:18:36.590Z,24.04
2017-05-18T16:21:05.038Z,24.38
2017-05-18T16:23:33.597Z,24.92
2017-05-18T16:26:05.956Z,25.52
2017-05-18T16:28:34.227Z,22.46
2017-05-18T16:31:01.467Z,21.28
2017-05-18T16:33:28.697Z,24.26
2017-05-18T16:35:55.937Z,22.70
2017-05-18T16:38:28.386Z,23.06
2017-05-18T16:40:55.635Z,22.44
2017-05-18T16:43:23.044Z,21.42
2017-05-18T16:45:50.256Z,20.38
2017-05-18T16:48:18.202Z,22.60
2017-05-18T16:50:45.455Z,22.34
2017-05-18T16:53:12.732Z,20.76
2017-05-18T16:55:39.929Z,20.20
2017-05-18T16:58:07.353Z,21.16
2017-05-18T17:00:34.537Z,24.84
2017-05-18T17:03:01.748Z,23.46
2017-05-18T17:05:29.025Z,23.86
2017-05-18T17:07:56.252Z,22.14
2017-05-18T17:10:23.485Z,21.98
2017-05-18T17:12:51.443Z,24.74
2017-05-18T17:15:19.521Z,23.40
2017-05-18T17:17:46.729Z,28.00
2017-05-18T17:20:14.000Z,24.52
2017-05-18T17:22:41.225Z,23.70
2017-05-18T17:25:08.442Z,22.92
2017-05-18T17:27:35.748Z,24.64
2017-05-18T17:30:03.004Z,23.48
2017-05-18T17:32:30.212Z,23.22
2017-05-18T17:34:57.524Z,23.58
2017-05-18T17:37:24.764Z,24.68
2017-05-18T17:39:52.040Z,23.68
2017-05-18T17:42:19.318Z,23.36
2017-05-18T17:44:46.537Z,22.72
2017-05-18T17:47:13.728Z,22.48
2017-05-18T17:49:41.041Z,22.52
2017-05-18T17:52:09.316Z,24.72
2017-05-18T17:54:37.705Z,23.44
2017-05-18T17:57:04.953Z,24.32
2017-05-18T17:59:32.169Z,24.50
2017-05-18T18:01:59.457Z,25.04
2017-05-18T18:04:27.633Z,23.32
2017-05-18T18:06:55.633Z,24.14
2017-05-18T18:09:23.673Z,25.64
2017-05-18T18:11:50.997Z,28.24
2017-05-18T18:14:19.002Z,29.92
2017-05-18T18:16:46.212Z,26.68
2017-05-18T18:19:14.152Z,26.38
2017-05-18T18:21:42.106Z,26.92
2017-05-18T18:24:10.073Z,28.96
2017-05-18T18:26:43.886Z,27.22
2017-05-18T18:29:14.249Z,32.06
2017-05-18T18:31:41.462Z,29.24
2017-05-18T18:34:08.675Z,29.80
2017-05-18T18:36:36.002Z,30.20
2017-05-18T18:39:07.685Z,33.90
2017-05-18T18:41:34.956Z,31.98
2017-05-18T18:44:02.152Z,31.80
2017-05-18T18:46:29.370Z,32.68
2017-05-18T18:48:56.573Z,37.62
2017-05-18T18:51:23.832Z,34.68
2017-05-18T18:53:51.037Z,35.12
2017-05-18T18:56:18.265Z,34.20
2017-05-18T18:58:45.464Z,40.18
2017-05-18T19:01:13.460Z,35.74
2017-05-18T19:03:40.698Z,35.76
2017-05-18T19:06:08.029Z,35.88
2017-05-18T19:08:35.268Z,33.02
2017-05-18T19:11:02.644Z,39.76
2017-05-18T19:13:29.889Z,33.34
2017-05-18T19:15:58.196Z,36.70
2017-05-18T19:18:25.437Z,36.02
2017-05-18T19:20:53.457Z,40.66
2017-05-18T19:23:20.664Z,38.54
2017-05-18T19:25:47.908Z,41.12
2017-05-18T19:28:15.848Z,39.06
2017-05-18T19:30:49.882Z,40.90
2017-05-18T19:33:17.093Z,36.36
2017-05-18T19:35:44.290Z,40.48
2017-05-18T19:38:11.524Z,41.56
2017-05-18T19:40:38.985Z,39.02
2017-05-18T19:43:06.272Z,41.86
2017-05-18T19:45:33.504Z,39.88
2017-05-18T19:48:00.719Z,38.64
2017-05-18T19:50:27.954Z,35.84
2017-05-18T19:52:55.183Z,39.36
2017-05-18T19:55:22.380Z,36.36
2017-05-18T19:57:49.622Z,37.04
2017-05-18T20:00:16.892Z,38.22
2017-05-18T20:02:44.146Z,39.14
2017-05-18T20:05:11.366Z,36.46
2017-05-18T20:07:38.641Z,35.68
2017-05-18T20:10:05.869Z,34.56
2017-05-18T20:12:33.151Z,36.64
2017-05-18T20:15:00.372Z,34.24
2017-05-18T20:17:27.641Z,40.58
2017-05-18T20:19:54.895Z,31.96
2017-05-18T20:22:22.151Z,39.02
2017-05-18T20:24:49.417Z,36.36
2017-05-18T20:27:16.672Z,33.26
2017-05-18T20:29:44.020Z,35.34
2017-05-18T20:32:11.208Z,35.48
2017-05-18T20:34:38.513Z,36.30
2017-05-18T20:37:05.713Z,37.66
2017-05-18T20:39:32.953Z,40.54
2017-05-18T20:42:00.117Z,32.62
2017-05-18T20:44:28.058Z,35.64
2017-05-18T20:46:55.278Z,35.20
2017-05-18T20:49:22.477Z,34.82
2017-05-18T20:51:49.672Z,36.72
2017-05-18T20:54:17.532Z,36.90
2017-05-18T20:56:45.546Z,31.76
2017-05-18T20:59:12.784Z,44.46
2017-05-18T21:01:39.980Z,38.12
2017-05-18T21:06:47.823Z,37.34
2017-05-18T21:09:15.005Z,33.62
2017-05-18T21:11:42.189Z,37.64
2017-05-18T21:14:10.148Z,40.56
2017-05-18T21:16:38.171Z,37.62
2017-05-18T21:19:05.425Z,36.34
2017-05-18T21:21:32.649Z,36.00
2017-05-18T21:23:59.880Z,39.48
2017-05-18T21:26:27.194Z,39.24
2017-05-18T21:28:54.404Z,61.70
2017-05-18T21:31:21.641Z,48.10
2017-05-18T21:33:48.884Z,53.32
2017-05-18T21:36:16.164Z,61.56
2017-05-18T21:38:43.395Z,56.20
2017-05-18T21:41:10.684Z,55.32
2017-05-18T21:43:37.957Z,53.00
2017-05-18T21:46:05.153Z,54.04
2017-05-18T21:48:32.350Z,50.70
2017-05-18T21:50:59.556Z,46.48
2017-05-18T21:53:26.761Z,45.50
2017-05-18T21:55:53.957Z,41.92
2017-05-18T21:58:21.189Z,46.16
2017-05-18T22:00:49.144Z,48.42
2017-05-18T22:03:16.328Z,47.02
2017-05-18T22:05:43.647Z,45.30
2017-05-18T22:08:10.928Z,43.04
2017-05-18T22:10:38.147Z,44.64
2017-05-18T22:13:05.376Z,43.28
2017-05-18T22:15:32.593Z,40.26
2017-05-18T22:17:59.973Z,43.02
2017-05-18T22:20:27.209Z,45.18
2017-05-18T22:22:58.405Z,47.82
2017-05-18T22:25:25.633Z,36.36
2017-05-18T22:27:52.842Z,41.74
2017-05-18T22:30:20.149Z,39.28
2017-05-18T22:32:47.349Z,41.10
2017-05-18T22:35:14.572Z,42.78
2017-05-18T22:37:41.933Z,45.38
2017-05-18T22:40:11.280Z,48.04
2017-05-18T22:42:39.231Z,40.58
2017-05-18T22:45:06.500Z,39.58
2017-05-18T22:47:33.761Z,38.84
2017-05-18T22:50:01.009Z,43.64
2017-05-18T22:52:28.217Z,41.82
2017-05-18T22:54:55.408Z,39.76
2017-05-18T22:57:22.659Z,40.60
2017-05-18T22:59:49.883Z,40.36
2017-05-18T23:02:17.132Z,40.48
2017-05-18T23:04:45.078Z,42.38
2017-05-18T23:07:12.276Z,39.12
2017-05-18T23:09:39.461Z,42.00
2017-05-18T23:12:06.652Z,45.72
2017-05-18T23:14:34.777Z,39.04
2017-05-18T23:17:02.001Z,35.18
2017-05-18T23:19:29.223Z,38.62
2017-05-18T23:21:57.215Z,36.20
2017-05-18T23:24:24.417Z,34.84
2017-05-18T23:26:51.605Z,37.20
2017-05-18T23:29:18.814Z,39.30
2017-05-18T23:31:46.008Z,35.94
2017-05-18T23:34:13.215Z,34.38
2017-05-18T23:36:40.420Z,38.90
2017-05-18T23:39:07.687Z,33.74
2017-05-18T23:41:34.948Z,31.74
2017-05-18T23:44:02.188Z,34.84
2017-05-18T23:46:29.384Z,35.50
2017-05-18T23:48:56.578Z,31.88
2017-05-18T23:51:23.803Z,32.92
2017-05-18T23:53:51.789Z,33.60
2017-05-18T23:56:19.016Z,28.74
2017-05-18T23:58:46.217Z,30.50
